Time;durP1;ratioP1;P1;durP2;ratioP2;P2;SDS_P1;SDS_P2;PMS_P1;PMS_P2;Temp;Humidity;BMP_temperature;BMP_pressure;BME280_temperature;BME280_humidity;BME280_pressure;Samples;Min_cycle;Max_cycle;Signal;HPM_P1;HPM_P2
2021/03/30 00:00:08;;;;;;;24.75;13.88;;;;;;;5.25;75.41;101765.84;1729921;82;21879;-67
2021/03/30 00:02:36;;;;;;;19.60;13.32;;;;;;;5.25;75.39;101767.13;1739539;82;20959;-67
2021/03/30 00:05:06;;;;;;;23.62;14.20;;;;;;;5.27;75.21;101765.84;1741793;82;21501;-67
2021/03/30 00:07:34;;;;;;;23.90;14.98;;;;;;;;;;1741567;82;20930;-67
2021/03/30 00:10:05;;;;;;;23.87;13.98;;;;;;;5.28;74.53;101763.24;1741682;82;21042;-67
2021/03/30 00:12:33;;;;;;;20.60;12.50;;;;;;;5.28;74.02;101767.12;1741615;82;21141;-67
2021/03/30 00:15:05;;;;;;;24.72;14.05;;;;;;;5.28;73.46;101768.41;1741580;82;21049;-67
2021/03/30 00:17:33;;;;;;;21.10;13.90;;;;;;;5.29;73.37;101774.43;1741670;82;21444;-67
2021/03/30 00:20:11;;;;;;;25.68;15.55;;;;;;;5.27;73.17;101773.15;1741586;82;21452;-67
2021/03/30 00:22:42;;;;;;;21.10;13.18;;;;;;;5.29;73.19;101776.58;1741723;82;21013;-68
2021/03/30 00:25:12;;;;;;;17.27;12.43;;;;;;;5.31;72.25;101776.57;1741788;82;22112;-67
2021/03/30 00:27:41;;;;;;;20.65;12.70;;;;;;;5.31;71.95;101783.89;1741616;82;20998;-67
2021/03/30 00:30:11;;;;;;;26.20;14.23;;;;;;;5.29;71.64;101780.89;1741701;82;21501;-67
2021/03/30 00:32:39;;;;;;;19.00;12.40;;;;;;;5.30;71.40;101780.02;1741672;82;21473;-67
2021/03/30 00:35:09;;;;;;;23.75;14.95;;;;;;;5.27;71.26;101778.31;1741694;82;21607;-68
2021/03/30 00:37:37;;;;;;;25.02;14.43;;;;;;;5.25;71.66;101781.34;1741663;82;21136;-67
2021/03/30 00:40:09;;;;;;;21.10;13.45;;;;;;;5.28;71.77;101783.05;1741697;82;21491;-67
2021/03/30 00:42:38;;;;;;;25.65;14.65;;;;;;;5.30;71.68;101778.73;1741682;82;20958;-67
2021/03/30 00:45:08;;;;;;;21.33;13.65;;;;;;;5.30;71.60;101777.00;1741620;82;20903;-67
2021/03/30 00:47:38;;;;;;;19.20;11.60;;;;;;;5.31;71.50;101783.03;1741672;82;20950;-67
2021/03/30 00:50:10;;;;;;;18.00;11.80;;;;;;;5.29;71.35;101785.63;1741676;82;21304;-67
2021/03/30 00:52:41;;;;;;;17.87;12.15;;;;;;;5.28;71.31;101792.94;1746649;82;21049;-67
2021/03/30 00:55:30;;;;;;;20.17;12.88;;;;;;;5.26;71.16;101790.80;1741646;82;21480;-67
2021/03/30 00:57:59;;;;;;;23.80;14.18;;;;;;;5.23;71.18;101786.95;1741622;82;21628;-67
2021/03/30 01:00:27;;;;;;;21.68;13.08;;;;;;;5.24;71.33;101798.99;1741662;82;21647;-67
2021/03/30 01:02:56;;;;;;;20.15;14.25;;;;;;;5.24;71.19;101803.30;1732058;82;21437;-67
2021/03/30 01:05:24;;;;;;;24.75;16.65;;;;;;;5.25;71.23;101799.42;1729824;83;21540;-67
2021/03/30 01:08:07;;;;;;;23.20;15.60;;;;;;;5.28;71.15;101789.50;1729805;82;21497;-67
2021/03/30 01:10:57;;;;;;;26.40;16.45;;;;;;;5.28;70.76;101790.36;1729833;83;20942;-67
2021/03/30 01:13:51;;;;;;;23.60;15.20;;;;;;;5.28;70.33;101794.67;1729870;82;21497;-67
2021/03/30 01:16:24;;;;;;;26.77;15.85;;;;;;;5.25;70.14;101789.52;1729819;82;21204;-67
2021/03/30 01:19:04;;;;;;;28.25;16.00;;;;;;;5.22;70.16;101800.72;1729897;83;21545;-67
2021/03/30 01:22:10;;;;;;;20.27;13.10;;;;;;;5.23;70.16;101799.00;1729869;83;21576;-67
2021/03/30 01:24:45;;;;;;;23.73;13.35;;;;;;;5.24;69.87;101795.55;1729798;83;20903;-67
2021/03/30 01:27:54;;;;;;;19.42;12.47;;;;;;;5.24;69.60;101790.39;1730046;82;21567;-67
2021/03/30 01:30:23;;;;;;;20.25;12.98;;;;;;;5.21;69.41;101791.27;1729759;83;21973;-66
2021/03/30 01:32:58;;;;;;;20.00;12.80;;;;;;;5.19;69.43;101789.16;1729898;82;21464;-67
2021/03/30 01:35:26;;;;;;;17.30;12.30;;;;;;;5.16;69.50;101787.88;1730027;83;21124;-67
2021/03/30 01:37:56;;;;;;;16.45;11.33;;;;;;;5.14;69.13;101790.05;1730027;83;21010;-67
2021/03/30 01:40:31;;;;;;;16.87;11.83;;;;;;;5.11;69.08;101791.35;1730099;82;21370;-67
2021/03/30 01:43:02;;;;;;;17.00;12.03;;;;;;;5.09;69.01;101786.19;1730024;83;22228;-67
2021/03/30 01:45:32;;;;;;;19.00;12.63;;;;;;;5.06;68.63;101787.94;1729936;83;21006;-67
2021/03/30 01:48:02;;;;;;;18.15;12.95;;;;;;;5.02;68.94;101787.09;1730034;82;21409;-66
2021/03/30 01:50:32;;;;;;;22.30;14.60;;;;;;;5.00;68.90;101787.52;1729933;83;21006;-66
2021/03/30 01:53:01;;;;;;;24.67;15.00;;;;;;;5.00;68.74;101796.13;1729983;83;21022;-66
2021/03/30 01:55:30;;;;;;;26.93;16.12;;;;;;;5.01;68.80;101785.38;1730094;83;22063;-66
2021/03/30 01:57:59;;;;;;;31.45;18.00;;;;;;;5.02;68.81;101783.22;1729927;82;21517;-66
2021/03/30 02:00:31;;;;;;;27.45;16.07;;;;;;;5.04;69.00;101787.94;1729999;83;21561;-67
2021/03/30 02:03:00;;;;;;;21.60;14.10;;;;;;;5.02;68.96;101781.48;1737845;82;21553;-66
2021/03/30 02:05:28;;;;;;;22.55;13.05;;;;;;;5.03;68.91;101781.06;1741900;82;21468;-66
2021/03/30 02:07:58;;;;;;;21.10;12.65;;;;;;;5.00;68.92;101781.93;1741805;82;21587;-67
2021/03/30 02:10:36;;;;;;;21.25;14.28;;;;;;;4.99;68.84;101780.65;1741705;82;20954;-66
2021/03/30 02:13:09;;;;;;;22.87;17.12;;;;;;;4.96;68.73;101784.53;1741876;82;21603;-67
2021/03/30 02:15:37;;;;;;;21.17;13.95;;;;;;;4.91;68.75;101782.41;1741838;82;21603;-66
2021/03/30 02:18:14;;;;;;;19.12;13.50;;;;;;;4.86;68.83;101787.59;1741808;82;21464;-67
2021/03/30 02:20:48;;;;;;;18.42;13.75;;;;;;;4.81;69.14;101779.44;1746762;82;21366;-67
2021/03/30 02:23:26;;;;;;;17.27;12.65;;;;;;;4.81;69.15;101785.45;1741728;82;20954;-67
2021/03/30 02:25:58;;;;;;;19.23;12.63;;;;;;;4.79;69.15;101782.05;1747398;82;21034;-67
2021/03/30 02:28:36;;;;;;;17.55;12.78;;;;;;;4.78;69.10;101784.64;1741860;82;20935;-67
2021/03/30 02:31:03;;;;;;;18.87;12.23;;;;;;;4.72;69.24;101780.36;1741953;82;21159;-67
2021/03/30 02:33:32;;;;;;;15.80;12.13;;;;;;;4.68;69.47;101784.67;1741699;82;21507;-67
2021/03/30 02:36:00;;;;;;;15.48;11.93;;;;;;;4.66;69.47;101790.70;1741792;82;21586;-67
2021/03/30 02:38:30;;;;;;;20.77;13.98;;;;;;;4.63;69.45;101782.54;1741723;82;20955;-67
2021/03/30 02:40:59;;;;;;;17.32;12.03;;;;;;;4.61;69.39;101795.02;1741802;82;21504;-67
2021/03/30 02:43:28;;;;;;;20.52;13.22;;;;;;;4.56;69.44;101792.45;1741850;82;21559;-67
2021/03/30 02:45:57;;;;;;;19.85;13.28;;;;;;;4.54;69.39;101789.45;1741820;82;22119;-67
2021/03/30 02:48:25;;;;;;;20.82;14.70;;;;;;;4.50;69.51;101796.77;1741721;82;21504;-67
2021/03/30 02:50:55;;;;;;;21.40;15.45;;;;;;;4.49;69.79;101797.20;1741806;82;21342;-67
2021/03/30 02:53:24;;;;;;;14.85;12.80;;;;;;;4.49;69.95;101794.62;1741758;82;21603;-67
2021/03/30 02:55:53;;;;;;;18.57;11.93;;;;;;;4.47;69.84;101795.05;1741852;82;21432;-67
2021/03/30 02:58:22;;;;;;;17.75;12.55;;;;;;;4.45;69.67;101795.48;1741782;82;22083;-67
2021/03/30 03:00:51;;;;;;;15.40;11.90;;;;;;;4.45;69.66;101798.50;1741797;82;21603;-67
2021/03/30 03:03:19;;;;;;;20.95;14.00;;;;;;;4.42;69.57;101791.62;1741729;81;21488;-67
2021/03/30 03:05:49;;;;;;;21.07;15.30;;;;;;;4.38;69.66;101792.52;1741678;82;20994;-67
2021/03/30 03:08:17;;;;;;;20.55;14.18;;;;;;;4.37;69.70;101792.53;1741658;82;21504;-67
2021/03/30 03:10:47;;;;;;;21.77;15.43;;;;;;;4.32;69.84;101788.66;1741700;82;21159;-67
2021/03/30 03:13:15;;;;;;;20.62;14.68;;;;;;;4.30;69.89;101793.83;1741679;82;20966;-70
2021/03/30 03:15:44;;;;;;;18.70;13.13;;;;;;;4.29;70.40;101795.98;1741689;82;20994;-69
2021/03/30 03:18:14;;;;;;;18.00;13.15;;;;;;;4.31;70.37;101795.55;1741674;82;20994;-68
2021/03/30 03:20:48;;;;;;;18.42;12.90;;;;;;;4.35;70.63;101800.27;1741619;82;21052;-68
2021/03/30 03:23:16;;;;;;;20.02;13.30;;;;;;;4.37;70.29;101806.28;1741692;82;21202;-68
2021/03/30 03:25:45;;;;;;;19.07;13.40;;;;;;;4.41;70.28;101804.52;1741625;82;21010;-69
2021/03/30 03:28:14;;;;;;;18.10;12.25;;;;;;;4.40;70.11;101812.69;1741721;82;21033;-68
2021/03/30 03:30:43;;;;;;;21.33;13.22;;;;;;;4.38;69.83;101811.87;1741632;82;20962;-68
2021/03/30 03:33:13;;;;;;;17.73;12.98;;;;;;;4.37;69.63;101811.44;1741714;82;21037;-76
2021/03/30 03:36:09;;;;;;;23.65;14.87;;;;;;;4.34;69.50;101815.31;1741941;82;21419;-69
2021/03/30 03:38:43;;;;;;;22.82;14.18;;;;;;;4.32;69.37;101815.31;1741630;82;20990;-69
2021/03/30 03:41:16;;;;;;;24.55;14.03;;;;;;;4.34;69.24;101811.45;1741847;82;21018;-68
2021/03/30 03:43:45;;;;;;;19.90;14.87;;;;;;;4.31;69.32;101817.46;1741727;82;20997;-68
2021/03/30 03:46:16;;;;;;;20.23;14.33;;;;;;;4.33;69.49;101821.33;1741698;82;21021;-68
2021/03/30 03:48:45;;;;;;;22.05;13.90;;;;;;;4.32;68.87;101823.05;1741652;82;21125;-68
2021/03/30 03:51:15;;;;;;;21.45;13.13;;;;;;;4.34;69.17;101823.05;1741622;82;20974;-68
2021/03/30 03:53:45;;;;;;;18.50;13.40;;;;;;;4.34;69.07;101826.92;1741686;82;21480;-68
2021/03/30 03:56:16;;;;;;;21.07;12.95;;;;;;;4.38;69.18;101829.92;1741592;82;21011;-68
2021/03/30 03:58:47;;;;;;;17.35;12.33;;;;;;;4.40;69.04;101830.74;1746614;82;20974;-68
2021/03/30 04:01:21;;;;;;;20.15;13.03;;;;;;;4.43;68.86;101824.72;1741659;82;21364;-68
2021/03/30 04:03:59;;;;;;;16.82;12.73;;;;;;;4.45;68.62;101829.02;1733186;82;20954;-68
2021/03/30 04:06:35;;;;;;;18.10;13.18;;;;;;;4.45;68.22;101821.70;1729949;83;20963;-68
2021/03/30 04:09:04;;;;;;;22.52;12.53;;;;;;;4.43;67.95;101829.87;1729812;82;21013;-68
2021/03/30 04:11:33;;;;;;;17.80;13.72;;;;;;;4.41;67.88;101827.30;1729970;83;21002;-71
2021/03/30 04:14:02;;;;;;;18.25;12.90;;;;;;;4.42;68.02;101825.58;1729820;82;21367;-71
2021/03/30 04:16:31;;;;;;;23.80;15.05;;;;;;;4.45;68.05;101830.31;1729807;83;21022;-70
2021/03/30 04:19:00;;;;;;;40.50;24.37;;;;;;;4.52;67.71;101820.84;1729893;83;21516;-66
2021/03/30 04:21:31;;;;;;;56.92;31.68;;;;;;;4.55;67.53;101824.27;1729820;82;21508;-77
2021/03/30 04:23:59;;;;;;;59.88;31.40;;;;;;;4.57;66.88;101825.12;1729926;82;21026;-75
2021/03/30 04:26:30;;;;;;;57.67;29.18;;;;;;;4.55;66.48;101828.14;1729933;82;22085;-75
2021/03/30 04:28:59;;;;;;;66.12;31.95;;;;;;;4.52;66.25;101829.86;1729875;83;20971;-74
2021/03/30 04:31:27;;;;;;;69.90;31.77;;;;;;;4.49;66.12;101830.73;1729863;82;20975;-74
2021/03/30 04:33:56;;;;;;;53.08;28.17;;;;;;;4.51;66.23;101828.14;1729865;83;21552;-66
2021/03/30 04:36:24;;;;;;;51.15;27.07;;;;;;;4.53;66.39;101835.45;1729878;82;21504;-67
2021/03/30 04:38:53;;;;;;;49.33;23.87;;;;;;;4.56;66.25;101841.89;1729965;82;22089;-67
2021/03/30 04:41:22;;;;;;;50.65;24.57;;;;;;;4.58;65.53;101842.75;1729873;83;21093;-67
2021/03/30 04:43:50;;;;;;;49.65;26.12;;;;;;;4.56;65.38;101836.30;1729916;82;21643;-66
2021/03/30 04:46:19;;;;;;;51.80;26.37;;;;;;;4.55;65.55;101841.03;1729826;82;21627;-66
2021/03/30 04:48:47;;;;;;;48.28;24.02;;;;;;;4.55;65.30;101844.91;1729908;82;21619;-68
2021/03/30 04:51:16;;;;;;;46.15;23.55;;;;;;;4.55;65.49;101842.33;1729773;82;22162;-67
2021/03/30 04:53:45;;;;;;;47.83;25.17;;;;;;;4.56;65.40;101841.47;1729742;83;21053;-66
2021/03/30 04:56:14;;;;;;;53.23;27.77;;;;;;;4.55;65.33;101838.45;1729833;82;21575;-66
2021/03/30 04:58:42;;;;;;;47.03;26.50;;;;;;;4.54;65.36;101844.48;1723026;82;21643;-65
2021/03/30 05:01:11;;;;;;;53.63;25.95;;;;;;;4.51;65.21;101846.20;1752595;81;21634;-65
2021/03/30 05:03:39;;;;;;;55.92;28.32;;;;;;;4.50;65.26;101840.62;1744672;81;22156;-66
2021/03/30 05:06:09;;;;;;;41.53;23.60;;;;;;;4.53;64.95;101844.48;1742126;81;21136;-67
2021/03/30 05:08:39;;;;;;;34.23;19.82;;;;;;;4.53;64.63;101841.47;1723304;82;22167;-66
2021/03/30 05:11:09;;;;;;;37.33;21.48;;;;;;;4.55;64.23;101843.61;1733596;81;46144;-67
2021/03/30 05:13:39;;;;;;;29.32;18.87;;;;;;;4.63;64.46;101849.63;1745873;82;21444;-66
2021/03/30 05:16:08;;;;;;;27.98;18.52;;;;;;;4.80;64.39;101844.85;1734460;81;21214;-66
2021/03/30 05:18:37;;;;;;;30.43;18.10;;;;;;;4.89;64.09;101848.23;1729551;82;21051;-66
2021/03/30 05:21:06;;;;;;;27.90;18.98;;;;;;;4.98;63.34;101846.91;1715054;83;21658;-65
2021/03/30 05:23:35;;;;;;;26.35;16.77;;;;;;;5.09;63.04;101843.00;1716799;83;21023;-65
2021/03/30 05:26:04;;;;;;;29.10;17.98;;;;;;;5.25;63.07;101842.47;1732729;81;22272;-63
2021/03/30 05:28:37;;;;;;;27.40;17.95;;;;;;;5.52;62.41;101837.59;1722951;81;21865;-66
2021/03/30 05:31:05;;;;;;;20.97;14.20;;;;;;;5.78;61.97;101839.97;1720192;82;21245;-64
2021/03/30 05:33:34;;;;;;;22.00;14.80;;;;;;;5.84;60.43;101838.20;1720253;82;21588;-65
2021/03/30 05:36:04;;;;;;;23.62;15.50;;;;;;;5.81;60.00;101834.78;1724198;82;21023;-67
2021/03/30 05:38:33;;;;;;;27.25;18.52;;;;;;;5.74;60.16;101840.43;1720143;82;21595;-66
2021/03/30 05:41:06;;;;;;;26.65;18.50;;;;;;;5.64;60.12;101835.75;1732733;82;22093;-66
2021/03/30 05:43:37;;;;;;;26.00;17.52;;;;;;;5.52;60.28;101831.13;1721617;82;21077;-64
2021/03/30 05:46:07;;;;;;;26.17;16.90;;;;;;;5.39;60.62;101842.40;1727524;81;20962;-67
2021/03/30 05:48:36;;;;;;;39.60;20.92;;;;;;;5.26;61.06;101837.73;1725028;82;21068;-62
2021/03/30 05:51:05;;;;;;;42.20;25.60;;;;;;;5.20;61.66;101838.61;1730850;81;21237;-64
2021/03/30 05:53:33;;;;;;;44.53;26.00;;;;;;;5.22;62.19;101839.46;1723319;82;22253;-63
2021/03/30 05:56:05;;;;;;;34.35;20.72;;;;;;;5.28;62.26;101842.02;1724623;82;21536;-64
2021/03/30 05:58:34;;;;;;;38.38;20.05;;;;;;;5.41;62.29;101848.41;1733553;82;21140;-66
2021/03/30 06:01:07;;;;;;;32.80;16.70;;;;;;;5.55;62.05;101845.32;1731080;82;21146;-65
2021/03/30 06:03:36;;;;;;;25.00;14.30;;;;;;;5.72;61.57;101846.48;1681867;84;21670;-64
2021/03/30 06:06:05;;;;;;;33.48;18.05;;;;;;;5.88;61.29;101852.83;1680892;85;22505;-64
2021/03/30 06:08:37;;;;;;;21.70;15.20;;;;;;;6.06;60.93;101858.73;1682354;85;21109;-64
2021/03/30 06:11:07;;;;;;;27.27;14.93;;;;;;;6.21;60.53;101855.59;1651248;85;21073;-64
2021/03/30 06:13:54;;;;;;;23.52;14.10;;;;;;;6.41;60.25;101861.84;1675403;85;21187;-65
2021/03/30 06:16:41;;;;;;;23.92;14.45;;;;;;;6.59;59.77;101850.02;1682062;85;21619;-65
2021/03/30 06:19:15;;;;;;;18.15;12.45;;;;;;;6.81;59.12;101856.24;1664470;85;23557;-67
2021/03/30 06:22:00;;;;;;;18.87;12.95;;;;;;;6.98;58.19;101862.95;1690134;84;21231;-65
2021/03/30 06:24:31;;;;;;;16.57;11.65;;;;;;;7.13;58.26;101850.25;1688294;84;21025;-66
2021/03/30 06:27:13;;;;;;;26.87;14.63;;;;;;;7.34;57.72;101851.69;1665873;85;21104;-66
2021/03/30 06:29:43;;;;;;;25.57;14.15;;;;;;;7.53;57.53;101845.38;1696008;83;21137;-62
2021/03/30 06:32:13;;;;;;;20.50;13.45;;;;;;;7.76;58.13;101845.45;1703126;84;22205;-64
2021/03/30 06:34:43;;;;;;;22.87;14.85;;;;;;;8.04;56.63;101844.11;1650861;85;21089;-63
2021/03/30 06:37:31;;;;;;;22.45;14.18;;;;;;;8.35;56.74;101854.42;1682277;85;21732;-64
2021/03/30 06:40:20;;;;;;;26.77;14.00;;;;;;;8.62;56.50;101849.59;1703030;84;21049;-66
2021/03/30 06:42:53;;;;;;;27.93;15.05;;;;;;;8.89;55.65;101852.94;1652282;85;21042;-64
2021/03/30 06:45:25;;;;;;;26.77;13.20;;;;;;;9.09;54.59;101851.24;1647514;86;21383;-64
2021/03/30 06:47:57;;;;;;;22.77;12.73;;;;;;;9.25;53.34;101849.16;1649766;85;21129;-66
2021/03/30 06:50:35;;;;;;;14.03;10.72;;;;;;;9.46;52.86;101849.99;1670585;84;21057;-66
2021/03/30 06:53:13;;;;;;;18.48;12.00;;;;;;;9.67;51.96;101855.12;1647638;85;21644;-65
2021/03/30 06:55:51;;;;;;;19.37;11.03;;;;;;;9.86;51.72;101859.02;1670372;84;21030;-65
2021/03/30 06:58:22;;;;;;;22.48;11.68;;;;;;;10.07;50.34;101855.47;1658978;85;22023;-63
2021/03/30 07:00:51;;;;;;;15.50;10.78;;;;;;;10.27;50.04;101861.07;1680243;85;21118;-66
2021/03/30 07:03:22;;;;;;;15.48;10.20;;;;;;;10.45;48.55;101855.81;1681733;83;21766;-69
2021/03/30 07:05:53;;;;;;;13.75;9.63;;;;;;;10.65;48.52;101857.00;1722193;82;21148;-68
2021/03/30 07:08:22;;;;;;;13.80;8.90;;;;;;;10.88;47.18;101860.25;1727704;83;21731;-64
2021/03/30 07:10:53;;;;;;;14.47;10.25;;;;;;;11.15;48.41;101854.70;1725663;82;22231;-66
2021/03/30 07:13:23;;;;;;;12.23;9.40;;;;;;;11.49;47.25;101852.38;1715545;83;21052;-65
2021/03/30 07:16:04;;;;;;;12.88;9.75;;;;;;;11.78;46.30;101856.70;1727084;83;21690;-69
2021/03/30 07:18:43;;;;;;;16.15;10.80;;;;;;;11.99;45.32;101860.79;1727314;83;21124;-62
2021/03/30 07:21:19;;;;;;;23.50;13.68;;;;;;;12.19;45.57;101860.11;1723743;83;21606;-66
2021/03/30 07:23:57;;;;;;;20.25;12.55;;;;;;;12.33;44.45;101862.27;1727572;83;22282;-65
2021/03/30 07:26:40;;;;;;;15.38;10.93;;;;;;;12.35;44.66;101863.06;1727676;83;21598;-66
2021/03/30 07:29:13;;;;;;;11.63;9.53;;;;;;;12.40;44.28;101863.73;1727889;83;21016;-66
2021/03/30 07:32:18;;;;;;;15.23;10.65;;;;;;;12.45;43.90;101868.34;1727661;83;21922;-66
2021/03/30 07:35:00;;;;;;;15.45;10.85;;;;;;;12.50;43.75;101862.52;1717757;82;21448;-67
2021/03/30 07:37:39;;;;;;;17.35;10.38;;;;;;;12.63;44.21;101866.86;1714842;83;21455;-65
2021/03/30 07:40:10;;;;;;;14.40;9.58;;;;;;;12.74;44.03;101862.56;1664681;86;21055;-64
2021/03/30 07:42:41;;;;;;;11.70;8.38;;;;;;;12.84;43.24;101863.45;1664220;86;21045;-64
2021/03/30 07:45:24;;;;;;;12.20;9.08;;;;;;;13.03;41.96;101854.04;1727405;83;21490;-65
2021/03/30 07:47:53;;;;;;;11.90;8.68;;;;;;;13.40;42.47;101863.59;1712542;83;21064;-65
2021/03/30 07:50:23;;;;;;;15.25;10.13;;;;;;;13.75;41.98;101855.64;1699714;82;22097;-65
2021/03/30 07:52:53;;;;;;;20.97;13.60;;;;;;;14.05;40.12;101857.45;1720400;82;21092;-64
2021/03/30 07:55:29;;;;;;;16.82;10.70;;;;;;;14.32;39.11;101860.25;1723602;83;21103;-66
2021/03/30 07:58:21;;;;;;;11.78;8.05;;;;;;;14.60;36.94;101862.09;1723027;83;21022;-65
2021/03/30 08:00:47;;;;;;;17.90;11.22;;;;;;;14.85;35.52;101862.30;1719380;83;21052;-65
2021/03/30 08:03:28;;;;;;;20.43;12.82;;;;;;;14.99;33.59;101863.84;1693270;83;21526;-64
2021/03/30 08:06:19;;;;;;;14.03;8.03;;;;;;;15.03;34.08;101858.00;1728413;82;21014;-63
2021/03/30 08:09:08;;;;;;;20.05;11.78;;;;;;;15.10;32.83;101857.66;1664187;85;21157;-66
2021/03/30 08:11:53;;;;;;;16.85;9.10;;;;;;;15.10;31.75;101856.81;1688892;84;21107;-66
2021/03/30 08:14:38;;;;;;;7.92;6.37;;;;;;;15.07;31.33;101859.11;1686634;85;21663;-67
2021/03/30 08:17:14;;;;;;;7.17;5.22;;;;;;;15.02;32.19;101859.78;1683199;85;21533;-68
2021/03/30 08:20:02;;;;;;;9.23;7.25;;;;;;;15.02;31.41;101861.09;1683173;85;21146;-66
2021/03/30 08:23:03;;;;;;;15.70;8.80;;;;;;;14.99;30.97;101865.16;1656443;85;21648;-64
2021/03/30 08:25:37;;;;;;;11.73;7.03;;;;;;;14.82;31.93;101852.80;1683377;85;21039;-65
2021/03/30 08:28:12;;;;;;;11.65;7.22;;;;;;;14.87;31.90;101853.91;1674931;85;21045;-66
2021/03/30 08:30:46;;;;;;;11.25;8.18;;;;;;;14.83;31.71;101849.25;1648331;85;21429;-64
2021/03/30 08:33:17;;;;;;;13.10;9.15;;;;;;;14.80;32.23;101853.33;1683004;85;21088;-66
2021/03/30 08:35:47;;;;;;;16.10;6.97;;;;;;;14.87;32.22;101854.75;1651730;85;21640;-63
2021/03/30 08:38:43;;;;;;;12.07;6.47;;;;;;;14.97;31.87;101856.51;1679305;85;21065;-66
2021/03/30 08:41:13;;;;;;;7.80;5.22;;;;;;;15.03;31.37;101848.36;1658808;85;20970;-68
2021/03/30 08:43:41;;;;;;;10.85;8.08;;;;;;;15.09;31.05;101844.61;1645177;85;21228;-66
2021/03/30 08:46:13;;;;;;;10.48;7.10;;;;;;;15.16;31.36;101846.88;1664978;85;21665;-65
2021/03/30 08:48:49;;;;;;;10.18;6.00;;;;;;;15.19;31.50;101851.99;1682891;84;21907;-64
2021/03/30 08:51:22;;;;;;;7.92;5.12;;;;;;;15.22;32.01;101846.57;1673569;85;20954;-67
2021/03/30 08:53:53;;;;;;;6.40;5.20;;;;;;;15.24;30.95;101839.94;1702943;84;21121;-67
2021/03/30 08:56:29;;;;;;;7.65;5.58;;;;;;;15.11;30.96;101834.44;1655811;85;21382;-62
2021/03/30 08:58:58;;;;;;;10.72;6.55;;;;;;;15.00;31.23;101831.45;1683432;85;21580;-64
2021/03/30 09:01:27;;;;;;;9.08;5.75;;;;;;;14.94;31.20;101836.97;1675043;85;21614;-64
2021/03/30 09:03:58;;;;;;;8.75;5.35;;;;;;;14.87;31.61;101835.08;1683615;83;21657;-65
2021/03/30 09:06:37;;;;;;;7.35;5.30;;;;;;;14.74;30.87;101835.73;1705805;83;21591;-66
2021/03/30 09:09:28;;;;;;;6.87;5.00;;;;;;;14.60;31.24;101835.88;1739734;79;21267;-67
2021/03/30 09:11:57;;;;;;;10.80;6.00;;;;;;;14.52;30.34;101834.50;1718305;83;21713;-65
2021/03/30 09:14:27;;;;;;;7.58;5.78;;;;;;;14.34;31.09;101831.75;1723343;83;21033;-65
2021/03/30 09:17:07;;;;;;;7.90;5.40;;;;;;;14.19;30.59;101836.32;1752993;80;21614;-65
2021/03/30 09:19:47;;;;;;;9.03;4.92;;;;;;;14.01;30.88;101824.84;1754097;80;21600;-64
2021/03/30 09:22:31;;;;;;;9.45;5.97;;;;;;;13.88;31.08;101817.58;1724513;81;21950;-62
2021/03/30 09:27:34;;;;;;;5.95;5.30;;;;;;;13.70;30.39;101816.55;1740670;80;21032;-64
2021/03/30 09:30:11;;;;;;;6.40;5.78;;;;;;;13.40;30.54;101806.02;1739876;80;20993;-65
2021/03/30 09:32:41;;;;;;;19.37;8.85;;;;;;;13.04;31.75;101806.52;1726748;81;20958;-67
2021/03/30 09:35:17;;;;;;;12.60;7.15;;;;;;;12.85;32.58;101801.56;1722447;83;21098;-66
2021/03/30 09:38:01;;;;;;;7.20;6.20;;;;;;;12.75;32.72;101805.00;1748833;81;21021;-67
2021/03/30 09:40:38;;;;;;;8.48;6.22;;;;;;;12.67;33.41;101799.20;1755722;81;20997;-66
2021/03/30 09:43:10;;;;;;;12.07;7.05;;;;;;;12.64;33.57;101795.39;1721055;83;21546;-67
2021/03/30 09:45:41;;;;;;;7.78;6.53;;;;;;;12.64;34.10;101796.24;1694945;84;21656;-67
2021/03/30 09:48:16;;;;;;;10.80;6.90;;;;;;;12.60;33.33;101805.09;1664764;83;21876;-66
2021/03/30 09:50:52;;;;;;;8.03;6.00;;;;;;;12.53;33.31;101805.37;1746655;80;20994;-64
2021/03/30 09:53:20;;;;;;;9.20;6.53;;;;;;;12.45;33.47;101800.86;1735003;81;20989;-64
2021/03/30 09:55:49;;;;;;;13.48;8.48;;;;;;;12.41;33.93;101795.35;1729664;82;20966;-65
2021/03/30 09:58:20;;;;;;;10.30;6.90;;;;;;;12.38;34.43;101798.95;1741414;81;21233;-64
2021/03/30 10:00:54;;;;;;;10.63;6.95;;;;;;;12.41;34.62;101796.66;1746569;81;21288;-64
2021/03/30 10:03:24;;;;;;;10.30;6.95;;;;;;;12.45;33.94;101795.19;1719988;81;21143;-66
2021/03/30 10:05:53;;;;;;;9.10;6.30;;;;;;;12.40;34.32;101788.42;1735508;82;21064;-68
2021/03/30 10:08:29;;;;;;;12.63;7.67;;;;;;;12.35;34.24;101785.55;1745223;81;21113;-68
2021/03/30 10:10:59;;;;;;;11.90;7.33;;;;;;;12.37;34.25;101785.49;1746131;81;20987;-67
2021/03/30 10:13:35;;;;;;;15.72;7.00;;;;;;;12.34;34.13;101779.92;1746219;82;21593;-67
2021/03/30 10:16:08;;;;;;;12.00;6.28;;;;;;;12.30;34.85;101780.94;1746065;82;21046;-67
2021/03/30 10:18:37;;;;;;;8.10;6.92;;;;;;;12.30;34.49;101784.85;1732889;82;21026;-66
2021/03/30 10:21:14;;;;;;;11.60;7.10;;;;;;;12.31;34.62;101785.25;1727875;83;21046;-67
2021/03/30 10:23:50;;;;;;;11.18;7.25;;;;;;;12.30;34.57;101782.70;1716023;83;21048;-67
2021/03/30 10:26:26;;;;;;;9.23;7.25;;;;;;;12.28;34.59;101778.83;1715875;83;21450;-65
2021/03/30 10:29:10;;;;;;;9.83;7.30;;;;;;;12.19;34.22;101780.45;1715862;83;21068;-67
2021/03/30 10:31:42;;;;;;;9.43;6.72;;;;;;;12.09;34.64;101783.43;1715896;83;21056;-66
2021/03/30 10:34:33;;;;;;;11.15;6.60;;;;;;;12.06;34.64;101779.61;1716365;83;21044;-67
2021/03/30 10:37:04;;;;;;;7.62;6.75;;;;;;;12.02;34.61;101778.41;1712855;83;21102;-67
2021/03/30 10:39:44;;;;;;;7.80;6.60;;;;;;;12.01;35.10;101775.85;1721052;82;21215;-67
2021/03/30 10:42:17;;;;;;;9.30;6.35;;;;;;;12.06;35.37;101778.31;1724526;82;21059;-66
2021/03/30 10:44:58;;;;;;;10.68;6.92;;;;;;;12.10;34.92;101774.69;1720506;82;20958;-67
2021/03/30 10:47:33;;;;;;;8.73;7.03;;;;;;;12.13;34.91;101778.50;1696567;84;21053;-65
2021/03/30 10:50:12;;;;;;;9.73;6.50;;;;;;;12.14;35.29;101772.37;1733348;81;21029;-65
2021/03/30 10:52:43;;;;;;;8.40;7.15;;;;;;;12.19;34.93;101771.77;1707260;82;21382;-66
2021/03/30 10:55:16;;;;;;;9.63;7.22;;;;;;;12.21;35.18;101766.89;1683968;85;21635;-66
2021/03/30 10:57:46;;;;;;;9.80;6.65;;;;;;;12.24;34.43;101766.78;1737361;82;21215;-65
2021/03/30 11:00:19;;;;;;;7.78;6.20;;;;;;;12.21;34.84;101760.81;1693798;84;21096;-66
2021/03/30 11:02:48;;;;;;;14.65;10.95;;;;;;;12.15;34.95;101755.34;1692085;84;21022;-67
2021/03/30 11:05:17;;;;;;;12.07;8.38;;;;;;;12.15;35.13;101759.72;1750117;81;22634;-67
2021/03/30 11:07:46;;;;;;;12.25;8.83;;;;;;;12.13;34.89;101751.08;1762783;81;21020;-66
2021/03/30 11:10:16;;;;;;;10.38;7.92;;;;;;;12.12;35.57;101750.68;1762865;80;21689;-65
2021/03/30 11:12:45;;;;;;;15.80;8.80;;;;;;;12.14;35.67;101751.48;1766647;80;21638;-66
2021/03/30 11:15:15;;;;;;;9.55;7.00;;;;;;;12.20;35.59;101744.28;1763176;80;21609;-65
2021/03/30 11:17:46;;;;;;;10.20;7.30;;;;;;;12.23;35.05;101745.94;1763477;80;20989;-66
2021/03/30 11:20:15;;;;;;;14.80;8.33;;;;;;;12.21;35.27;101744.69;1760554;80;21096;-66
2021/03/30 11:22:48;;;;;;;15.03;9.10;;;;;;;12.23;35.66;101744.19;1742972;81;20963;-66
2021/03/30 11:25:15;;;;;;;11.65;8.05;;;;;;;12.27;35.57;101737.09;1743070;81;21122;-66
2021/03/30 11:27:46;;;;;;;7.62;6.50;;;;;;;12.32;35.46;101736.47;1742842;82;21670;-65
2021/03/30 11:30:30;;;;;;;10.40;7.10;;;;;;;12.33;35.54;101726.42;1757809;80;21210;-67
2021/03/30 11:35:37;;;;;;;8.85;6.60;;;;;;;12.43;35.58;101724.30;1762398;81;20972;-64
2021/03/30 11:38:09;;;;;;;8.15;6.55;;;;;;;12.47;35.53;101719.36;1762196;80;20976;-64
2021/03/30 11:40:37;;;;;;;15.25;8.23;;;;;;;12.52;35.09;101709.59;1761919;80;21646;-64
2021/03/30 11:43:07;;;;;;;17.45;8.90;;;;;;;12.55;35.41;101710.79;1768692;80;21198;-67
2021/03/30 11:45:36;;;;;;;13.43;8.28;;;;;;;12.55;35.43;101704.26;1766770;80;21124;-67
2021/03/30 11:48:05;;;;;;;8.95;7.25;;;;;;;12.55;35.38;101703.80;1766776;80;20977;-67
2021/03/30 11:50:35;;;;;;;8.25;7.05;;;;;;;12.56;35.47;101698.98;1762116;80;21132;-66